createdAt,value
2019-06-08T00:01:16.483Z,99.90
2019-06-08T00:03:42.647Z,99.90
2019-06-08T00:06:08.716Z,99.90
2019-06-08T00:08:34.796Z,99.90
2019-06-08T00:11:00.888Z,99.90
2019-06-08T00:13:27.585Z,99.90
2019-06-08T00:15:53.657Z,99.90
2019-06-08T00:18:19.720Z,99.90
2019-06-08T00:20:45.816Z,99.90
2019-06-08T00:23:11.884Z,99.90
2019-06-08T00:25:37.971Z,99.90
2019-06-08T00:28:04.041Z,99.90
2019-06-08T00:30:30.740Z,99.90
2019-06-08T00:32:56.884Z,99.90
2019-06-08T00:35:22.944Z,99.90
2019-06-08T00:37:49.123Z,99.90
2019-06-08T00:40:15.441Z,99.90
2019-06-08T00:42:41.600Z,99.90
2019-06-08T00:45:08.788Z,99.90
2019-06-08T00:47:47.030Z,99.90
2019-06-08T00:50:04.920Z,99.90
2019-06-08T00:52:30.984Z,99.90
2019-06-08T00:54:57.074Z,99.90
2019-06-08T00:57:23.830Z,99.90
2019-06-08T00:59:50.053Z,99.90
2019-06-08T01:02:16.232Z,99.90
2019-06-08T01:04:42.297Z,99.90
2019-06-08T01:07:08.371Z,99.90
2019-06-08T01:09:34.456Z,99.90
2019-06-08T01:12:00.530Z,99.90
2019-06-08T01:14:27.074Z,99.90
2019-06-08T01:16:53.392Z,99.90
2019-06-08T01:19:19.555Z,99.90
2019-06-08T01:21:45.648Z,99.90
2019-06-08T01:24:13.173Z,99.90
2019-06-08T01:26:39.353Z,99.90
2019-06-08T01:29:05.410Z,99.90
2019-06-08T01:31:31.503Z,99.90
2019-06-08T01:33:57.660Z,99.70
2019-06-08T01:36:24.772Z,99.50
2019-06-08T01:38:51.020Z,99.90
2019-06-08T01:41:17.112Z,99.80
2019-06-08T01:43:43.175Z,99.90
2019-06-08T01:46:10.551Z,99.10
2019-06-08T01:48:36.625Z,98.90
2019-06-08T01:51:02.684Z,98.80
2019-06-08T01:53:28.899Z,98.50
2019-06-08T01:55:55.029Z,98.60
2019-06-08T01:58:21.108Z,98.90
2019-06-08T02:00:48.639Z,98.90
2019-06-08T02:03:14.704Z,98.70
2019-06-08T02:05:40.988Z,98.50
2019-06-08T02:08:07.061Z,98.50
2019-06-08T02:10:33.229Z,98.30
2019-06-08T02:12:59.308Z,98.50
2019-06-08T02:15:25.505Z,98.60
2019-06-08T02:17:51.587Z,98.50
2019-06-08T02:20:17.956Z,98.00
2019-06-08T02:22:44.020Z,98.40
2019-06-08T02:25:10.719Z,98.40
2019-06-08T02:27:36.775Z,97.80
2019-06-08T02:30:15.278Z,98.00
2019-06-08T02:32:41.446Z,98.10
2019-06-08T02:35:08.212Z,97.80
2019-06-08T02:37:35.377Z,97.60
2019-06-08T02:40:04.784Z,97.50
2019-06-08T02:42:32.641Z,97.50
2019-06-08T02:45:19.019Z,97.20
2019-06-08T02:47:45.317Z,97.50
2019-06-08T02:50:11.894Z,97.70
2019-06-08T02:52:41.776Z,98.30
2019-06-08T02:55:09.082Z,97.70
2019-06-08T02:57:37.481Z,97.00
2019-06-08T03:00:06.840Z,97.30
2019-06-08T03:02:33.994Z,97.10
2019-06-08T03:05:02.122Z,97.10
2019-06-08T03:07:32.343Z,97.40
2019-06-08T03:09:59.092Z,97.10
2019-06-08T03:12:25.998Z,97.20
2019-06-08T03:14:52.878Z,97.20
2019-06-08T03:17:19.069Z,97.30
2019-06-08T03:19:45.144Z,97.30
2019-06-08T03:22:11.424Z,97.50
2019-06-08T03:24:38.728Z,97.30
2019-06-08T03:27:05.140Z,97.50
2019-06-08T03:29:32.480Z,97.50
2019-06-08T03:31:58.711Z,97.30
2019-06-08T03:34:24.902Z,97.50
2019-06-08T03:36:56.142Z,97.50
2019-06-08T03:39:19.090Z,97.30
2019-06-08T03:41:45.327Z,97.40
2019-06-08T03:44:11.641Z,97.60
2019-06-08T03:46:38.804Z,97.50
2019-06-08T03:49:05.500Z,97.70
2019-06-08T03:51:35.290Z,97.90
2019-06-08T03:53:59.590Z,98.10
2019-06-08T03:56:25.759Z,97.80
2019-06-08T03:58:51.823Z,97.60
2019-06-08T04:01:17.897Z,97.70
2019-06-08T04:03:45.986Z,97.40
2019-06-08T04:06:12.581Z,97.60
2019-06-08T04:08:40.815Z,98.00
2019-06-08T04:11:06.690Z,97.70
2019-06-08T04:13:33.051Z,98.20
2019-06-08T04:15:59.116Z,97.60
2019-06-08T04:18:25.239Z,97.90
2019-06-08T04:20:51.725Z,98.10
2019-06-08T04:23:18.056Z,97.70
2019-06-08T04:25:44.978Z,98.20
2019-06-08T04:28:12.121Z,98.10
2019-06-08T04:30:38.661Z,98.10
2019-06-08T04:33:04.988Z,98.30
2019-06-08T04:35:31.158Z,98.20
2019-06-08T04:37:57.236Z,98.10
2019-06-08T04:40:23.337Z,98.30
2019-06-08T04:42:51.039Z,97.90
2019-06-08T04:45:17.589Z,98.10
2019-06-08T04:47:45.437Z,98.30
2019-06-08T04:50:22.363Z,98.50
2019-06-08T04:52:40.877Z,98.60
2019-06-08T04:55:07.233Z,98.70
2019-06-08T04:57:33.301Z,98.60
2019-06-08T04:59:59.369Z,98.50
2019-06-08T05:02:25.562Z,98.50
2019-06-08T05:04:51.627Z,98.60
2019-06-08T05:07:17.695Z,99.10
2019-06-08T05:09:45.092Z,98.80
2019-06-08T05:12:11.336Z,98.70
2019-06-08T05:14:38.983Z,98.90
2019-06-08T05:17:05.311Z,98.80
2019-06-08T05:19:31.642Z,99.10
2019-06-08T05:21:58.491Z,99.10
2019-06-08T05:24:24.680Z,99.00
2019-06-08T05:26:50.926Z,99.30
2019-06-08T05:29:17.120Z,99.20
2019-06-08T05:31:43.555Z,99.50
2019-06-08T05:34:09.780Z,98.90
2019-06-08T05:36:35.843Z,98.80
2019-06-08T05:39:04.451Z,99.50
2019-06-08T05:41:30.616Z,99.40
2019-06-08T05:43:56.688Z,98.90
2019-06-08T05:46:22.843Z,98.80
2019-06-08T05:48:50.269Z,98.70
2019-06-08T05:51:16.665Z,99.20
2019-06-08T05:53:43.813Z,98.90
2019-06-08T05:56:10.030Z,99.40
2019-06-08T05:58:36.101Z,99.70
2019-06-08T06:01:02.198Z,99.40
2019-06-08T06:03:28.263Z,99.50
2019-06-08T06:05:54.936Z,99.90
2019-06-08T06:08:21.039Z,99.90
2019-06-08T06:10:47.116Z,99.50
2019-06-08T06:13:13.199Z,99.40
2019-06-08T06:15:39.295Z,99.50
2019-06-08T06:18:05.364Z,99.90
2019-06-08T06:20:31.471Z,99.70
2019-06-08T06:22:58.630Z,99.50
2019-06-08T06:25:24.978Z,99.40
2019-06-08T06:27:51.784Z,98.40
2019-06-08T06:30:18.316Z,99.10
2019-06-08T06:32:45.885Z,99.00
2019-06-08T06:35:12.382Z,99.80
2019-06-08T06:37:38.468Z,99.90
2019-06-08T06:40:06.364Z,99.00
2019-06-08T06:42:32.443Z,99.80
2019-06-08T06:44:58.619Z,99.70
2019-06-08T06:47:24.706Z,98.30
2019-06-08T06:49:50.803Z,98.00
2019-06-08T06:52:16.959Z,98.40
2019-06-08T06:54:43.032Z,98.10
2019-06-08T06:57:09.095Z,99.20
2019-06-08T06:59:35.216Z,98.00
2019-06-08T07:02:01.650Z,97.10
2019-06-08T07:04:27.844Z,97.40
2019-06-08T07:06:54.416Z,96.80
2019-06-08T07:09:20.736Z,96.70
2019-06-08T07:11:46.909Z,97.00
2019-06-08T07:14:13.195Z,97.20
2019-06-08T07:16:39.288Z,98.20
2019-06-08T07:19:05.402Z,98.30
2019-06-08T07:21:41.357Z,97.40
2019-06-08T07:23:59.542Z,97.70
2019-06-08T07:26:25.607Z,97.30
2019-06-08T07:28:52.539Z,96.70
2019-06-08T07:31:20.452Z,96.90
2019-06-08T07:33:46.803Z,98.40
2019-06-08T07:36:14.407Z,98.40
2019-06-08T07:38:40.516Z,98.60
2019-06-08T07:41:06.585Z,98.20
2019-06-08T07:43:32.746Z,97.20
2019-06-08T07:46:00.515Z,97.30
2019-06-08T07:48:26.684Z,97.00
2019-06-08T07:50:52.767Z,96.70
2019-06-08T07:53:18.925Z,97.50
2019-06-08T07:55:45.480Z,98.00
2019-06-08T07:58:11.850Z,97.60
2019-06-08T08:00:37.949Z,96.20
2019-06-08T08:03:04.116Z,96.30
2019-06-08T08:05:30.190Z,96.10
2019-06-08T08:07:56.857Z,96.30
2019-06-08T08:10:23.164Z,95.80
2019-06-08T08:12:49.655Z,95.30
2019-06-08T08:15:17.848Z,95.10
2019-06-08T08:17:43.939Z,94.30
2019-06-08T08:20:10.700Z,94.70
2019-06-08T08:22:38.237Z,94.10
2019-06-08T08:25:08.205Z,92.70
2019-06-08T08:27:34.658Z,92.50
2019-06-08T08:30:02.113Z,93.30
2019-06-08T08:32:28.630Z,91.80
2019-06-08T08:34:56.473Z,92.80
2019-06-08T08:37:22.695Z,91.50
2019-06-08T08:39:50.078Z,92.30
2019-06-08T08:42:18.036Z,91.80
2019-06-08T08:44:44.367Z,91.60
2019-06-08T08:47:10.440Z,92.40
2019-06-08T08:49:37.976Z,91.60
2019-06-08T08:52:04.324Z,87.90
2019-06-08T08:54:30.389Z,86.00
2019-06-08T08:57:00.763Z,87.40
2019-06-08T08:59:24.460Z,86.30
2019-06-08T09:01:51.814Z,82.20
2019-06-08T09:04:18.675Z,80.80
2019-06-08T09:06:44.888Z,79.50
2019-06-08T09:09:10.987Z,78.80
2019-06-08T09:11:40.813Z,79.60
2019-06-08T09:14:09.592Z,78.00
2019-06-08T09:16:33.208Z,77.70
2019-06-08T09:19:02.469Z,78.00
2019-06-08T09:21:28.092Z,76.30
2019-06-08T09:23:55.751Z,75.90
2019-06-08T09:26:22.471Z,83.90
2019-06-08T09:28:48.547Z,75.80
2019-06-08T09:31:15.556Z,74.90
2019-06-08T09:33:41.711Z,73.00
2019-06-08T09:36:08.261Z,73.10
2019-06-08T09:38:34.711Z,75.20
2019-06-08T09:41:03.392Z,76.40
2019-06-08T09:43:29.032Z,76.50
2019-06-08T09:45:55.405Z,71.60
2019-06-08T09:48:22.668Z,73.30
2019-06-08T09:50:48.845Z,79.70
2019-06-08T09:53:26.791Z,73.10
2019-06-08T09:55:43.107Z,72.20
2019-06-08T09:58:11.679Z,69.10
2019-06-08T10:00:37.913Z,69.30
2019-06-08T10:03:06.254Z,69.50
2019-06-08T10:05:32.128Z,69.40
2019-06-08T10:08:00.560Z,72.30
2019-06-08T10:10:26.208Z,68.90
2019-06-08T10:12:52.285Z,69.90
2019-06-08T10:15:18.688Z,68.30
2019-06-08T10:17:47.445Z,65.70
2019-06-08T10:20:13.533Z,66.60
2019-06-08T10:22:39.612Z,64.90
2019-06-08T10:25:10.297Z,66.70
2019-06-08T10:27:34.493Z,66.50
2019-06-08T10:30:03.150Z,67.10
2019-06-08T10:32:28.635Z,65.80
2019-06-08T10:34:56.432Z,65.40
2019-06-08T10:37:22.692Z,64.80
2019-06-08T10:39:48.788Z,65.50
2019-06-08T10:42:14.872Z,65.70
2019-06-08T10:44:40.951Z,62.00
2019-06-08T10:47:10.063Z,59.50
2019-06-08T10:49:35.008Z,60.30
2019-06-08T10:52:03.441Z,59.80
2019-06-08T10:54:29.297Z,60.70
2019-06-08T10:56:55.480Z,60.00
2019-06-08T10:59:21.552Z,62.10
2019-06-08T11:01:47.628Z,65.30
2019-06-08T11:04:13.713Z,61.60
2019-06-08T11:06:40.364Z,59.50
2019-06-08T11:09:12.339Z,60.30
2019-06-08T11:11:34.658Z,61.60
2019-06-08T11:14:02.529Z,61.20
2019-06-08T11:16:28.835Z,61.50
2019-06-08T11:18:55.034Z,61.10
2019-06-08T11:21:21.284Z,61.80
2019-06-08T11:24:05.134Z,58.10
2019-06-08T11:26:20.733Z,58.60
2019-06-08T11:28:43.424Z,56.80
2019-06-08T11:31:15.771Z,57.20
2019-06-08T11:33:39.000Z,59.20
2019-06-08T11:36:07.216Z,58.80
2019-06-08T11:38:33.347Z,58.50
2019-06-08T11:41:00.987Z,59.20
2019-06-08T11:43:28.729Z,59.20
2019-06-08T11:45:55.111Z,58.50
2019-06-08T11:48:22.812Z,58.00
2019-06-08T11:50:49.116Z,59.70
2019-06-08T11:53:17.857Z,59.20
2019-06-08T11:55:43.467Z,58.80
2019-06-08T11:58:12.101Z,61.20
2019-06-08T12:01:00.939Z,60.00
2019-06-08T12:03:27.635Z,59.10
2019-06-08T12:05:53.557Z,57.20
2019-06-08T12:08:20.884Z,57.00
2019-06-08T12:10:49.097Z,58.00
2019-06-08T12:13:17.726Z,55.40
2019-06-08T12:15:43.684Z,58.30
2019-06-08T12:18:11.403Z,56.80
2019-06-08T12:20:37.950Z,55.90
2019-06-08T12:23:04.145Z,55.70
2019-06-08T12:25:30.208Z,55.20
2019-06-08T12:27:58.432Z,56.50
2019-06-08T12:30:26.131Z,56.40
2019-06-08T12:32:52.325Z,53.40
2019-06-08T12:35:18.420Z,51.70
2019-06-08T12:37:44.488Z,51.30
2019-06-08T12:40:13.270Z,51.20
2019-06-08T12:42:38.568Z,52.00
2019-06-08T12:45:05.560Z,51.60
2019-06-08T12:47:31.625Z,48.90
2019-06-08T12:49:58.475Z,48.60
2019-06-08T12:52:24.878Z,46.30
2019-06-08T12:55:02.444Z,47.50
2019-06-08T12:57:20.377Z,48.10
2019-06-08T12:59:46.924Z,52.50
2019-06-08T13:02:16.593Z,53.90
2019-06-08T13:04:40.999Z,52.30
2019-06-08T13:07:08.817Z,52.60
2019-06-08T13:09:37.930Z,50.70
2019-06-08T13:12:03.164Z,51.60
2019-06-08T13:14:29.233Z,49.70
2019-06-08T13:16:55.631Z,48.10
2019-06-08T13:19:21.694Z,49.90
2019-06-08T13:21:48.616Z,49.60
2019-06-08T13:24:16.946Z,45.90
2019-06-08T13:26:43.484Z,50.50
2019-06-08T13:29:10.993Z,46.60
2019-06-08T13:31:38.330Z,47.60
2019-06-08T13:34:04.568Z,44.70
2019-06-08T13:36:30.749Z,46.40
2019-06-08T13:38:56.844Z,43.80
2019-06-08T13:41:26.025Z,42.50
2019-06-08T13:43:50.909Z,42.80
2019-06-08T13:46:19.063Z,41.60
2019-06-08T13:48:44.979Z,40.80
2019-06-08T13:51:11.936Z,39.70
2019-06-08T13:53:39.064Z,37.70
2019-06-08T13:56:07.684Z,38.90
2019-06-08T13:58:33.808Z,41.50
2019-06-08T14:01:00.300Z,40.20
2019-06-08T14:03:27.786Z,42.40
2019-06-08T14:05:54.088Z,41.30
2019-06-08T14:08:22.410Z,43.00
2019-06-08T14:10:48.298Z,43.00
2019-06-08T14:13:15.116Z,39.60
2019-06-08T14:15:41.444Z,41.10
2019-06-08T14:18:08.894Z,39.00
2019-06-08T14:20:35.215Z,40.80
2019-06-08T14:23:01.299Z,39.70
2019-06-08T14:25:28.901Z,40.70
2019-06-08T14:27:57.493Z,39.70
2019-06-08T14:30:23.803Z,38.50
2019-06-08T14:32:50.035Z,39.30
2019-06-08T14:35:18.693Z,39.70
2019-06-08T14:37:44.432Z,38.30
2019-06-08T14:40:11.244Z,38.00
2019-06-08T14:42:38.393Z,37.80
2019-06-08T14:45:07.562Z,38.40
2019-06-08T14:47:37.530Z,38.90
2019-06-08T14:50:07.833Z,39.00
2019-06-08T14:52:33.273Z,38.00
2019-06-08T14:54:59.460Z,37.10
2019-06-08T14:57:27.808Z,39.60
2019-06-08T14:59:56.317Z,36.10
2019-06-08T15:02:21.509Z,36.10
2019-06-08T15:04:48.452Z,38.60
2019-06-08T15:07:14.680Z,38.80
2019-06-08T15:09:40.749Z,36.10
2019-06-08T15:12:09.041Z,35.50
2019-06-08T15:14:35.529Z,35.90
2019-06-08T15:17:03.004Z,35.00
2019-06-08T15:19:31.211Z,34.60
2019-06-08T15:21:57.294Z,36.80
2019-06-08T15:24:24.585Z,36.30
2019-06-08T15:26:50.860Z,38.10
2019-06-08T15:29:16.937Z,36.70
2019-06-08T15:31:43.029Z,36.60
2019-06-08T15:34:10.744Z,34.40
2019-06-08T15:36:38.190Z,33.70
2019-06-08T15:39:07.798Z,34.10
2019-06-08T15:41:33.970Z,35.60
2019-06-08T15:44:00.069Z,36.40
2019-06-08T15:46:26.417Z,35.60
2019-06-08T15:48:52.604Z,34.90
2019-06-08T15:51:18.691Z,34.10
2019-06-08T15:53:44.755Z,34.10
2019-06-08T15:56:10.851Z,34.80
2019-06-08T15:58:40.164Z,33.90
2019-06-08T16:01:04.897Z,34.00
2019-06-08T16:03:31.430Z,34.10
2019-06-08T16:05:57.662Z,33.80
2019-06-08T16:08:23.783Z,32.70
2019-06-08T16:10:50.026Z,33.60
2019-06-08T16:13:16.092Z,34.00
2019-06-08T16:15:42.276Z,33.90
2019-06-08T16:18:08.352Z,34.70
2019-06-08T16:20:35.664Z,34.70
2019-06-08T16:23:01.917Z,33.80
2019-06-08T16:25:27.995Z,34.10
2019-06-08T16:27:54.189Z,34.70
2019-06-08T16:30:20.276Z,35.60
2019-06-08T16:32:46.343Z,35.00
2019-06-08T16:35:12.533Z,34.40
2019-06-08T16:37:39.832Z,33.50
2019-06-08T16:40:06.419Z,32.90
2019-06-08T16:42:32.507Z,33.70
2019-06-08T16:44:58.668Z,32.60
2019-06-08T16:47:24.742Z,32.30
2019-06-08T16:49:50.834Z,33.30
2019-06-08T16:52:17.381Z,33.20
2019-06-08T16:54:43.701Z,33.50
2019-06-08T16:57:11.205Z,35.00
2019-06-08T16:59:38.714Z,34.80
2019-06-08T17:02:04.980Z,35.70
2019-06-08T17:04:31.356Z,34.70
2019-06-08T17:06:57.547Z,35.00
2019-06-08T17:09:23.615Z,35.40
2019-06-08T17:11:50.426Z,36.50
2019-06-08T17:14:16.689Z,38.10
2019-06-08T17:16:42.784Z,38.90
2019-06-08T17:19:08.965Z,40.00
2019-06-08T17:21:36.265Z,41.30
2019-06-08T17:24:02.826Z,42.10
2019-06-08T17:26:28.924Z,43.10
2019-06-08T17:28:54.995Z,43.20
2019-06-08T17:31:21.702Z,44.40
2019-06-08T17:33:47.745Z,45.20
2019-06-08T17:36:13.800Z,46.60
2019-06-08T17:38:39.896Z,46.80
2019-06-08T17:41:05.973Z,47.50
2019-06-08T17:43:32.129Z,47.60
2019-06-08T17:45:58.370Z,48.80
2019-06-08T17:48:24.480Z,50.10
2019-06-08T17:50:50.532Z,50.40
2019-06-08T17:53:16.631Z,50.00
2019-06-08T17:55:43.934Z,50.80
2019-06-08T17:58:10.186Z,50.90
2019-06-08T18:00:37.399Z,51.60
2019-06-08T18:03:03.674Z,51.90
2019-06-08T18:05:29.759Z,52.30
2019-06-08T18:07:57.902Z,52.30
2019-06-08T18:10:23.916Z,52.90
2019-06-08T18:12:50.032Z,53.50
2019-06-08T18:15:17.509Z,53.50
2019-06-08T18:17:44.267Z,54.10
2019-06-08T18:20:13.471Z,53.80
2019-06-08T18:22:42.829Z,54.10
2019-06-08T18:25:07.864Z,54.50
2019-06-08T18:27:34.669Z,54.20
2019-06-08T18:30:08.042Z,54.40
2019-06-08T18:32:28.952Z,54.60
2019-06-08T18:34:57.128Z,54.90
2019-06-08T18:37:23.007Z,55.20
2019-06-08T18:39:49.656Z,55.10
2019-06-08T18:42:17.941Z,55.60
2019-06-08T18:44:45.813Z,55.70
2019-06-08T18:47:12.445Z,55.80
2019-06-08T18:49:41.617Z,56.10
2019-06-08T18:52:08.140Z,56.80
2019-06-08T18:54:35.424Z,56.90
2019-06-08T18:57:05.376Z,56.90
2019-06-08T18:59:30.664Z,57.40
2019-06-08T19:01:57.064Z,57.60
2019-06-08T19:04:23.232Z,58.60
2019-06-08T19:06:50.109Z,58.30
2019-06-08T19:09:17.188Z,58.90
2019-06-08T19:11:43.600Z,59.00
2019-06-08T19:14:11.396Z,59.90
2019-06-08T19:16:40.833Z,59.80
2019-06-08T19:19:07.444Z,63.00
2019-06-08T19:21:33.613Z,63.80
2019-06-08T19:23:59.928Z,64.50
2019-06-08T19:26:28.168Z,63.00
2019-06-08T19:28:54.403Z,62.10
2019-06-08T19:31:20.660Z,62.30
2019-06-08T19:33:53.320Z,62.30
2019-06-08T19:36:17.136Z,62.00
2019-06-08T19:38:44.585Z,62.60
2019-06-08T19:41:10.823Z,62.50
2019-06-08T19:43:39.968Z,62.70
2019-06-08T19:46:07.098Z,63.10
2019-06-08T19:48:32.863Z,63.20
2019-06-08T19:50:58.946Z,63.80
2019-06-08T19:53:25.028Z,64.00
2019-06-08T19:55:54.020Z,63.80
2019-06-08T19:58:19.077Z,65.10
2019-06-08T20:00:48.531Z,64.10
2019-06-08T20:03:13.464Z,64.60
2019-06-08T20:05:41.147Z,65.00
2019-06-08T20:08:08.022Z,67.30
2019-06-08T20:10:34.416Z,67.20
2019-06-08T20:13:00.780Z,70.00
2019-06-08T20:15:27.014Z,68.80
2019-06-08T20:17:54.057Z,67.90
2019-06-08T20:20:20.357Z,67.20
2019-06-08T20:22:49.017Z,67.10
2019-06-08T20:25:17.754Z,67.90
2019-06-08T20:27:45.255Z,68.10
2019-06-08T20:30:12.345Z,68.40
2019-06-08T20:32:38.611Z,67.60
2019-06-08T20:35:07.800Z,67.70
2019-06-08T20:37:33.581Z,68.30
2019-06-08T20:40:10.134Z,68.00
2019-06-08T20:42:28.927Z,67.90
2019-06-08T20:44:57.632Z,68.00
2019-06-08T20:47:23.240Z,68.20
2019-06-08T20:49:51.635Z,68.20
2019-06-08T20:52:17.737Z,69.30
2019-06-08T20:54:44.638Z,71.10
2019-06-08T20:57:10.785Z,73.00
2019-06-08T20:59:39.494Z,72.70
2019-06-08T21:02:04.860Z,71.30
2019-06-08T21:04:30.956Z,70.30
2019-06-08T21:06:57.454Z,70.10
2019-06-08T21:09:23.743Z,72.60
2019-06-08T21:11:52.502Z,73.70
2019-06-08T21:14:17.784Z,75.40
2019-06-08T21:16:44.647Z,77.00
2019-06-08T21:19:10.853Z,77.70
2019-06-08T21:21:37.692Z,77.70
2019-06-08T21:24:03.920Z,79.10
2019-06-08T21:26:30.016Z,79.30
2019-06-08T21:29:00.147Z,77.20
2019-06-08T21:31:24.088Z,76.00
2019-06-08T21:33:52.138Z,74.90
2019-06-08T21:36:18.275Z,76.00
2019-06-08T21:38:44.531Z,74.80
2019-06-08T21:41:10.623Z,74.90
2019-06-08T21:43:37.456Z,74.50
2019-06-08T21:46:03.785Z,74.60
2019-06-08T21:48:29.983Z,75.20
2019-06-08T21:50:59.552Z,75.10
2019-06-08T21:53:24.028Z,75.10
2019-06-08T21:55:50.657Z,74.70
2019-06-08T21:58:17.843Z,74.80
2019-06-08T22:00:47.196Z,76.00
2019-06-08T22:03:13.281Z,75.00
2019-06-08T22:05:39.508Z,75.10
2019-06-08T22:08:08.029Z,75.40
2019-06-08T22:10:34.148Z,76.00
2019-06-08T22:13:01.162Z,74.50
2019-06-08T22:15:27.504Z,74.00
2019-06-08T22:17:54.799Z,74.00
2019-06-08T22:20:21.155Z,74.70
2019-06-08T22:23:07.402Z,74.40
2019-06-08T22:25:33.625Z,74.30
2019-06-08T22:28:01.044Z,75.90
2019-06-08T22:30:36.348Z,77.30
2019-06-08T22:32:55.614Z,77.30
2019-06-08T22:35:21.866Z,76.90
2019-06-08T22:37:48.132Z,76.50
2019-06-08T22:40:14.452Z,75.40
2019-06-08T22:42:40.520Z,75.00
2019-06-08T22:45:08.229Z,75.00
2019-06-08T22:47:34.606Z,74.80
2019-06-08T22:50:02.157Z,74.80
2019-06-08T22:52:28.796Z,74.10
2019-06-08T22:54:58.421Z,74.00
2019-06-08T22:57:22.896Z,73.90
2019-06-08T22:59:48.995Z,74.20
2019-06-08T23:02:15.173Z,73.90
2019-06-08T23:04:41.253Z,73.60
2019-06-08T23:07:10.766Z,73.60
2019-06-08T23:09:37.324Z,73.70
2019-06-08T23:12:06.294Z,73.80
2019-06-08T23:14:31.594Z,78.40
2019-06-08T23:17:00.615Z,81.20
2019-06-08T23:19:26.410Z,82.40
2019-06-08T23:21:52.643Z,82.00
2019-06-08T23:24:18.733Z,85.60
2019-06-08T23:26:47.860Z,87.40
2019-06-08T23:29:13.389Z,88.30
2019-06-08T23:31:39.456Z,87.90
2019-06-08T23:34:09.814Z,88.50
2019-06-08T23:36:48.520Z,87.20
2019-06-08T23:39:01.576Z,86.80
2019-06-08T23:41:27.676Z,86.70
2019-06-08T23:43:53.752Z,87.30
2019-06-08T23:46:19.850Z,90.00
2019-06-08T23:48:48.161Z,89.80
2019-06-08T23:51:13.884Z,89.70
2019-06-08T23:53:39.968Z,90.00
2019-06-08T23:56:08.458Z,89.70
2019-06-08T23:58:34.017Z,88.80
